Time;durP1;ratioP1;P1;durP2;ratioP2;P2;SDS_P1;SDS_P2;PMS_P1;PMS_P2;Temp;Humidity;BMP_temperature;BMP_pressure;BME280_temperature;BME280_humidity;BME280_pressure;Samples;Min_cycle;Max_cycle;Signal;HPM_P1;HPM_P2
2023/08/20 00:01:26;;;;;;;10.82;5.18;;;;;;;14.53;100.00;101990.50;10474028;28;20033;-65
2023/08/20 00:06:27;;;;;;;14.10;4.88;;;;;;;14.47;100.00;101987.88;10477766;28;20044;-66
2023/08/20 00:11:28;;;;;;;14.85;5.55;;;;;;;14.42;100.00;101987.81;10468119;28;20058;-65
2023/08/20 00:16:28;;;;;;;14.48;5.15;;;;;;;14.31;100.00;101971.03;10477197;28;20056;-65
2023/08/20 00:21:29;;;;;;;8.20;4.95;;;;;;;14.43;100.00;101987.56;10473112;28;20977;-66
2023/08/20 00:26:30;;;;;;;15.30;5.13;;;;;;;14.40;100.00;101990.00;10478904;28;20041;-65
2023/08/20 00:31:30;;;;;;;12.40;5.30;;;;;;;14.33;100.00;101991.00;10472846;28;20052;-66
2023/08/20 00:36:31;;;;;;;11.65;4.93;;;;;;;14.26;100.00;101990.34;10477214;28;20037;-65
2023/08/20 00:41:31;;;;;;;9.25;5.05;;;;;;;14.22;100.00;102003.03;10478695;28;20424;-65
2023/08/20 00:46:32;;;;;;;8.90;4.40;;;;;;;14.14;100.00;101995.13;10469427;28;20048;-64
2023/08/20 00:51:33;;;;;;;9.55;4.68;;;;;;;14.06;100.00;102013.00;10460832;28;20124;-65
2023/08/20 00:56:33;;;;;;;13.18;5.75;;;;;;;13.92;100.00;102006.91;10472938;28;20044;-66
2023/08/20 01:01:33;;;;;;;10.07;5.18;;;;;;;14.01;100.00;102010.13;10469644;28;20044;-65
2023/08/20 01:06:51;;;;;;;11.70;4.80;;;;;;;13.96;100.00;102017.50;10468943;28;20041;-66
2023/08/20 01:11:56;;;;;;;;;;;;;;;13.91;100.00;102023.78;10474166;28;20037;-66
2023/08/20 01:16:57;;;;;;;8.30;4.60;;;;;;;13.84;100.00;102009.25;10471733;28;19942;-66
2023/08/20 01:22:16;;;;;;;13.00;5.35;;;;;;;13.81;100.00;102018.91;10488950;28;20041;-65
2023/08/20 01:27:17;;;;;;;12.15;5.97;;;;;;;13.84;100.00;102020.34;10459193;28;20041;-65
2023/08/20 01:32:18;;;;;;;19.77;7.07;;;;;;;13.82;100.00;102023.34;10471828;28;20060;-65
2023/08/20 01:37:18;;;;;;;14.63;5.97;;;;;;;13.82;100.00;102022.50;10474260;28;20416;-66
2023/08/20 01:42:19;;;;;;;12.27;5.82;;;;;;;13.75;100.00;102028.19;10471117;28;20485;-66
2023/08/20 01:47:19;;;;;;;17.13;6.40;;;;;;;13.77;100.00;102039.88;10472110;28;20041;-66
2023/08/20 01:52:20;;;;;;;12.88;6.82;;;;;;;13.76;100.00;102038.16;10478921;28;20041;-65
2023/08/20 01:57:20;;;;;;;11.68;5.53;;;;;;;13.79;100.00;102047.91;10473577;28;20079;-65
2023/08/20 02:02:21;;;;;;;14.25;6.60;;;;;;;13.74;100.00;102059.72;10446996;28;20071;-66
2023/08/20 02:07:21;;;;;;;14.52;6.05;;;;;;;13.38;100.00;102022.22;10484732;28;20045;-66
2023/08/20 02:12:22;;;;;;;12.75;5.75;;;;;;;13.67;100.00;102065.41;10483056;28;20048;-66
2023/08/20 02:17:23;;;;;;;8.43;4.57;;;;;;;13.67;100.00;102059.03;10479040;28;20040;-65
2023/08/20 02:22:24;;;;;;;15.40;6.65;;;;;;;13.65;100.00;102067.56;10478140;28;20101;-65
2023/08/20 02:27:24;;;;;;;13.40;5.38;;;;;;;13.72;100.00;102070.19;10484027;28;20037;-65
2023/08/20 02:32:25;;;;;;;11.13;5.30;;;;;;;13.71;100.00;102065.75;10477182;28;20497;-66
2023/08/20 02:37:25;;;;;;;9.85;5.65;;;;;;;13.64;100.00;102071.44;10485330;28;20041;-65
2023/08/20 02:42:26;;;;;;;18.13;6.07;;;;;;;13.62;100.00;102070.84;10475996;28;20087;-66
2023/08/20 02:47:26;;;;;;;12.00;6.28;;;;;;;13.62;100.00;102064.44;10478420;28;20105;-65
2023/08/20 02:52:26;;;;;;;12.02;6.50;;;;;;;13.62;100.00;102069.97;10481208;28;20041;-65
2023/08/20 02:57:27;;;;;;;21.88;7.85;;;;;;;13.65;100.00;102050.13;10481054;28;20444;-65
2023/08/20 03:02:27;;;;;;;14.75;7.28;;;;;;;13.69;100.00;102034.72;10477524;28;20048;-65
2023/08/20 03:07:28;;;;;;;18.58;6.78;;;;;;;13.71;100.00;102024.25;10481381;28;20037;-65
2023/08/20 03:12:29;;;;;;;13.95;6.95;;;;;;;13.70;100.00;102017.00;10479954;28;20037;-66
2023/08/20 03:17:29;;;;;;;15.25;6.65;;;;;;;13.75;100.00;102014.34;10478447;28;21562;-65
2023/08/20 03:22:30;;;;;;;18.27;8.13;;;;;;;13.70;100.00;102005.94;10478267;28;20052;-65
2023/08/20 03:27:30;;;;;;;14.15;8.35;;;;;;;13.68;100.00;102003.44;10480441;28;20059;-65
2023/08/20 03:32:31;;;;;;;13.45;7.72;;;;;;;13.62;100.00;102007.22;10474099;28;20068;-66
2023/08/20 03:37:32;;;;;;;14.57;8.25;;;;;;;13.60;100.00;102014.06;10475874;28;20056;-66
2023/08/20 03:42:32;;;;;;;13.25;8.13;;;;;;;13.51;100.00;102019.97;10474584;28;20063;-66
2023/08/20 03:47:33;;;;;;;21.10;9.68;;;;;;;13.52;100.00;102018.91;10474941;28;20041;-66
2023/08/20 03:52:33;;;;;;;19.23;9.35;;;;;;;13.51;100.00;102011.69;10475512;28;20445;-65
2023/08/20 03:57:34;;;;;;;18.90;9.40;;;;;;;13.45;100.00;102023.72;10482594;28;20041;-66
2023/08/20 04:02:34;;;;;;;17.67;9.38;;;;;;;13.39;100.00;102019.16;10443901;28;20493;-66
2023/08/20 04:07:35;;;;;;;22.92;10.35;;;;;;;13.45;100.00;102028.41;10441248;28;20032;-66
2023/08/20 04:12:35;;;;;;;20.77;10.50;;;;;;;13.41;100.00;102010.63;10477502;28;20472;-65
2023/08/20 04:17:36;;;;;;;21.75;11.30;;;;;;;13.41;100.00;102028.06;10477341;28;20064;-65
2023/08/20 04:22:37;;;;;;;24.33;11.13;;;;;;;13.37;100.00;102046.25;10475332;28;20083;-65
2023/08/20 04:27:37;;;;;;;22.27;11.15;;;;;;;13.35;100.00;102051.16;10472596;28;20041;-65
2023/08/20 04:32:38;;;;;;;22.85;11.02;;;;;;;13.38;100.00;102052.63;10476737;28;20116;-66
2023/08/20 04:37:38;;;;;;;29.33;13.73;;;;;;;13.41;100.00;102046.59;10472770;28;20438;-65
2023/08/20 04:42:39;;;;;;;21.58;12.25;;;;;;;13.37;100.00;102054.53;10470967;28;20076;-66
2023/08/20 04:47:39;;;;;;;23.60;11.27;;;;;;;13.38;100.00;102072.00;10467830;28;20041;-65
2023/08/20 04:52:40;;;;;;;28.65;12.93;;;;;;;13.42;100.00;102068.50;10478513;28;20036;-65
2023/08/20 04:57:40;;;;;;;26.70;12.95;;;;;;;13.46;100.00;102064.16;10471655;28;20060;-65
2023/08/20 05:02:41;;;;;;;20.48;11.85;;;;;;;13.53;100.00;102070.38;10463454;28;20037;-65
2023/08/20 05:07:41;;;;;;;27.20;13.20;;;;;;;13.62;100.00;102072.75;10460265;28;20047;-66
2023/08/20 05:12:42;;;;;;;26.67;13.65;;;;;;;13.72;100.00;102078.50;10447856;28;20580;-65
2023/08/20 05:17:42;;;;;;;24.10;12.80;;;;;;;13.78;100.00;102084.97;10458300;28;20071;-66
2023/08/20 05:22:43;;;;;;;25.90;13.70;;;;;;;13.45;100.00;102011.81;10471220;28;20044;-65
2023/08/20 05:27:43;;;;;;;28.15;14.98;;;;;;;13.89;100.00;102073.88;10481839;28;20061;-66
2023/08/20 05:32:44;;;;;;;22.55;13.02;;;;;;;14.04;100.00;102095.47;10441430;28;20055;-66
2023/08/20 05:37:44;;;;;;;19.58;13.05;;;;;;;14.12;100.00;102099.78;10483128;28;20071;-65
2023/08/20 05:42:45;;;;;;;25.88;12.50;;;;;;;14.17;100.00;102094.31;10478918;28;20087;-65
2023/08/20 05:47:45;;;;;;;26.35;13.27;;;;;;;14.24;100.00;102092.25;10484452;28;20037;-65
2023/08/20 05:52:46;;;;;;;25.50;12.45;;;;;;;14.57;100.00;102087.84;10484753;28;20036;-65
2023/08/20 05:57:46;;;;;;;23.85;13.55;;;;;;;14.93;100.00;102088.41;10476250;28;20048;-65
2023/08/20 06:02:46;;;;;;;22.75;13.75;;;;;;;15.25;100.00;102093.31;10460850;28;20067;-66
2023/08/20 06:07:47;;;;;;;23.13;13.60;;;;;;;15.53;100.00;102098.69;10481210;28;20040;-66
2023/08/20 06:12:48;;;;;;;22.08;12.75;;;;;;;15.56;100.00;102057.63;10445789;28;20424;-65
2023/08/20 06:17:48;;;;;;;18.50;12.18;;;;;;;15.96;100.00;102089.78;10421885;28;20045;-66
2023/08/20 06:22:49;;;;;;;16.60;11.50;;;;;;;16.34;100.00;102114.63;10410347;28;20030;-65
2023/08/20 06:27:49;;;;;;;27.75;13.48;;;;;;;16.57;100.00;102115.38;10402779;28;20036;-65
2023/08/20 06:32:50;;;;;;;15.27;9.25;;;;;;;16.83;100.00;102124.00;10410664;28;20064;-65
2023/08/20 06:37:50;;;;;;;13.48;9.25;;;;;;;17.09;100.00;102123.06;10436060;28;20087;-66
2023/08/20 06:42:50;;;;;;;13.52;8.48;;;;;;;17.34;100.00;102115.97;10430306;28;20045;-65
2023/08/20 06:47:51;;;;;;;14.43;7.13;;;;;;;17.60;100.00;102136.44;10421221;28;20144;-65
2023/08/20 06:52:52;;;;;;;12.18;8.15;;;;;;;17.79;100.00;102134.00;10420028;28;20576;-65
2023/08/20 06:57:52;;;;;;;13.75;7.32;;;;;;;18.01;100.00;102133.03;10466375;28;20037;-65
2023/08/20 07:02:53;;;;;;;11.75;7.50;;;;;;;18.24;100.00;102140.88;10472423;28;20056;-65
2023/08/20 07:07:53;;;;;;;16.63;6.70;;;;;;;18.40;100.00;102147.31;10468988;28;20029;-65
2023/08/20 07:12:53;;;;;;;14.75;7.45;;;;;;;18.53;100.00;102152.34;10461030;28;20041;-65
2023/08/20 07:17:54;;;;;;;12.32;6.45;;;;;;;18.78;100.00;102155.44;10457244;28;20041;-66
2023/08/20 07:22:54;;;;;;;20.67;8.15;;;;;;;18.94;100.00;102152.41;10474822;28;20067;-65
2023/08/20 07:27:59;;;;;;;12.77;7.00;;;;;;;19.14;100.00;102153.47;10475611;28;20028;-66
2023/08/20 07:32:59;;;;;;;12.38;6.63;;;;;;;19.37;100.00;102168.81;10454924;28;20506;-65
2023/08/20 07:38:00;;;;;;;12.25;6.07;;;;;;;19.43;100.00;102153.72;10437717;28;20041;-65
2023/08/20 07:43:00;;;;;;;12.63;4.50;;;;;;;19.62;100.00;102153.13;10428725;28;20057;-65
2023/08/20 07:48:01;;;;;;;13.20;4.38;;;;;;;19.86;100.00;102156.13;10437755;28;20739;-65
2023/08/20 07:53:01;;;;;;;14.50;4.50;;;;;;;20.04;100.00;102157.44;10429918;28;20278;-65
2023/08/20 07:58:02;;;;;;;13.02;3.78;;;;;;;20.25;100.00;102150.59;10429946;28;20504;-66
2023/08/20 08:03:02;;;;;;;9.52;3.03;;;;;;;20.25;100.00;102138.59;10428093;28;20584;-64
2023/08/20 08:08:03;;;;;;;8.02;2.50;;;;;;;20.51;100.00;102147.66;10438537;28;20048;-66
2023/08/20 08:13:03;;;;;;;10.40;3.17;;;;;;;20.72;100.00;102159.53;10433298;28;20064;-66
2023/08/20 08:18:04;;;;;;;7.55;2.85;;;;;;;20.74;100.00;102144.13;10431322;28;20045;-66
2023/08/20 08:23:04;;;;;;;11.13;1.90;;;;;;;21.02;100.00;102146.41;10418968;28;20044;-66
2023/08/20 08:28:05;;;;;;;9.05;1.80;;;;;;;21.07;100.00;102127.59;10438713;28;20033;-67
2023/08/20 08:33:06;;;;;;;11.98;2.50;;;;;;;21.31;100.00;102140.78;10428651;28;20127;-66
2023/08/20 08:38:06;;;;;;;9.95;1.92;;;;;;;21.50;100.00;102141.75;10426536;28;20041;-66
2023/08/20 08:43:07;;;;;;;8.65;1.52;;;;;;;21.62;100.00;102127.31;10447391;28;20041;-67
2023/08/20 08:48:07;;;;;;;8.23;1.73;;;;;;;21.75;100.00;102145.38;10408084;28;20045;-66
2023/08/20 08:53:08;;;;;;;9.70;2.10;;;;;;;21.88;100.00;102152.22;10465317;28;20044;-66
2023/08/20 08:58:08;;;;;;;7.28;1.88;;;;;;;22.01;100.00;102150.63;10460213;28;20083;-66
2023/08/20 09:03:09;;;;;;;9.05;1.20;;;;;;;22.16;100.00;102156.06;10472021;28;20061;-66
2023/08/20 09:08:09;;;;;;;3.22;0.80;;;;;;;22.44;100.00;102151.44;10467809;28;20512;-66
2023/08/20 09:13:10;;;;;;;6.78;1.30;;;;;;;22.64;100.00;102150.28;10477282;28;20044;-66
2023/08/20 09:18:10;;;;;;;5.03;0.90;;;;;;;22.83;100.00;102155.03;10470283;28;20044;-66
2023/08/20 09:23:12;;;;;;;3.28;1.40;;;;;;;22.93;100.00;102160.47;10481773;28;20040;-67
2023/08/20 09:28:14;;;;;;;5.90;1.17;;;;;;;23.25;100.00;102164.44;10459583;28;20040;-67
2023/08/20 09:33:14;;;;;;;4.93;1.30;;;;;;;23.00;100.00;102160.91;10475392;28;20032;-68
2023/08/20 09:38:14;;;;;;;5.53;1.00;;;;;;;23.25;100.00;102168.06;10468064;28;20413;-68
2023/08/20 09:43:16;;;;;;;5.40;1.17;;;;;;;23.13;100.00;102164.91;10476471;28;20060;-66
2023/08/20 09:48:19;;;;;;;5.57;1.65;;;;;;;23.46;100.00;102159.25;10474528;28;20069;-66
2023/08/20 09:53:27;;;;;;;5.90;1.30;;;;;;;23.72;100.00;102154.78;10470360;28;20400;-67
2023/08/20 09:58:28;;;;;;;4.22;0.85;;;;;;;23.95;100.00;102141.66;10474811;28;20040;-67
2023/08/20 10:03:28;;;;;;;3.35;0.93;;;;;;;24.25;100.00;102152.56;10453612;28;20055;-67
2023/08/20 10:08:29;;;;;;;4.05;0.70;;;;;;;24.27;100.00;102148.28;10476682;28;20059;-66
2023/08/20 10:13:29;;;;;;;5.05;0.70;;;;;;;24.13;100.00;102153.13;10477801;28;20056;-67
2023/08/20 10:18:29;;;;;;;4.25;0.82;;;;;;;24.23;100.00;102147.25;10479606;28;20053;-66
2023/08/20 10:23:30;;;;;;;2.45;0.50;;;;;;;24.44;100.00;102143.97;10462268;28;20052;-66
2023/08/20 10:28:31;;;;;;;6.70;1.75;;;;;;;24.50;100.00;102145.53;10480359;28;20040;-66
2023/08/20 10:33:36;;;;;;;3.50;0.68;;;;;;;24.63;100.00;102155.91;10477869;28;20086;-66
2023/08/20 10:38:37;;;;;;;1.60;0.63;;;;;;;24.82;100.00;102135.16;10471924;28;20045;-67
2023/08/20 10:43:39;;;;;;;4.78;0.70;;;;;;;25.07;100.00;102144.94;10473437;28;20036;-66
2023/08/20 10:48:40;;;;;;;3.42;0.80;;;;;;;25.18;100.00;102127.44;10467635;28;20052;-67
2023/08/20 10:54:05;;;;;;;2.63;0.70;;;;;;;25.43;100.00;102144.81;10475464;28;20056;-66
2023/08/20 10:59:08;;;;;;;4.00;0.85;;;;;;;25.55;100.00;102130.94;10472001;28;20045;-67
2023/08/20 11:04:08;;;;;;;2.45;0.93;;;;;;;25.76;100.00;102122.69;10461974;28;20037;-67
2023/08/20 11:09:09;;;;;;;3.50;1.20;;;;;;;25.70;100.00;102121.19;10473584;28;20040;-67
2023/08/20 11:14:13;;;;;;;4.68;0.90;;;;;;;26.06;100.00;102133.41;10494216;28;20113;-66
2023/08/20 11:19:14;;;;;;;4.78;0.70;;;;;;;25.93;100.00;102127.56;10457431;28;20037;-66
2023/08/20 11:24:15;;;;;;;3.80;1.30;;;;;;;26.03;100.00;102131.25;10477127;28;20120;-66
2023/08/20 11:29:20;;;;;;;3.75;1.33;;;;;;;26.34;100.00;102133.94;10455941;28;20406;-67
2023/08/20 11:34:21;;;;;;;6.60;0.90;;;;;;;26.39;100.00;102125.28;10476452;28;20041;-67
2023/08/20 11:39:21;;;;;;;3.35;0.60;;;;;;;26.64;100.00;102120.81;10461653;28;20056;-67
2023/08/20 11:44:22;;;;;;;7.85;1.13;;;;;;;26.47;100.00;102123.63;10442707;28;20033;-66
2023/08/20 11:49:32;;;;;;;4.47;0.70;;;;;;;26.69;100.00;102117.84;10475373;28;20037;-67
2023/08/20 11:54:32;;;;;;;5.00;0.70;;;;;;;27.10;100.00;102105.09;10470981;28;20072;-66
2023/08/20 11:59:33;;;;;;;6.78;1.00;;;;;;;27.41;100.00;102106.84;10454104;28;20033;-67
2023/08/20 12:04:33;;;;;;;3.50;0.60;;;;;;;28.08;100.00;102105.13;10453549;28;20041;-67
2023/08/20 12:09:34;;;;;;;3.30;1.23;;;;;;;28.47;100.00;102110.63;10470378;28;20162;-67
2023/08/20 12:14:35;;;;;;;3.70;0.77;;;;;;;29.11;97.20;102101.66;10470560;28;20036;-70
2023/08/20 12:19:35;;;;;;;3.13;0.70;;;;;;;29.50;92.84;102090.00;10474361;28;20052;-71
2023/08/20 12:24:36;;;;;;;1.45;0.70;;;;;;;29.77;92.20;102088.47;10443653;28;20067;-72
2023/08/20 12:29:37;;;;;;;4.88;0.80;;;;;;;29.45;87.57;102071.19;10469875;28;20128;-71
2023/08/20 12:34:38;;;;;;;0.75;0.40;;;;;;;29.99;89.49;102089.94;10458754;28;20069;-71
2023/08/20 12:39:38;;;;;;;3.10;0.63;;;;;;;29.92;83.20;102022.41;10474995;28;20444;-73
2023/08/20 12:44:39;;;;;;;1.80;0.50;;;;;;;28.73;82.16;102074.41;10436465;28;20045;-73
2023/08/20 12:49:39;;;;;;;0.95;0.43;;;;;;;28.50;84.03;102084.47;10421490;28;20045;-71
2023/08/20 12:54:40;;;;;;;2.10;0.50;;;;;;;29.26;81.15;102070.97;10426013;28;20062;-70
2023/08/20 12:59:41;;;;;;;3.25;0.55;;;;;;;28.52;84.65;102085.75;10438346;28;20420;-70
2023/08/20 13:04:41;;;;;;;2.22;0.47;;;;;;;28.82;84.36;102077.13;10431683;28;20038;-69
2023/08/20 13:09:42;;;;;;;2.35;0.47;;;;;;;29.70;83.20;102076.84;10451610;28;20063;-71
2023/08/20 13:14:43;;;;;;;3.03;0.65;;;;;;;29.32;80.51;102080.91;10428607;28;20401;-73
2023/08/20 13:19:44;;;;;;;4.15;0.70;;;;;;;28.95;81.17;102075.16;10430283;28;20044;-70
2023/08/20 13:24:44;;;;;;;1.52;0.65;;;;;;;29.47;81.60;102071.66;10431762;28;20037;-72
2023/08/20 13:29:45;;;;;;;2.70;0.60;;;;;;;29.53;78.43;102078.75;10432553;28;20044;-72
2023/08/20 13:34:45;;;;;;;0.82;0.40;;;;;;;27.91;82.05;102102.41;10426052;28;20091;-75
2023/08/20 13:39:46;;;;;;;1.75;0.40;;;;;;;27.11;85.01;102101.09;10428687;28;20401;-71
2023/08/20 13:44:46;;;;;;;2.88;0.50;;;;;;;28.49;85.47;102094.97;10434356;28;20048;-73
2023/08/20 13:49:47;;;;;;;3.50;0.57;;;;;;;29.05;80.27;102080.34;10434426;28;20034;-73
2023/08/20 13:54:47;;;;;;;1.63;0.40;;;;;;;28.60;81.13;102092.53;10444803;28;20087;-70
2023/08/20 13:59:48;;;;;;;4.72;0.60;;;;;;;29.82;80.72;102095.91;10435938;28;20060;-70
2023/08/20 14:04:49;;;;;;;3.30;0.60;;;;;;;30.26;75.64;102076.97;10428518;28;20053;-69
2023/08/20 14:09:49;;;;;;;2.33;0.30;;;;;;;30.12;73.00;102071.69;10442482;28;20040;-74
2023/08/20 14:14:50;;;;;;;3.22;0.50;;;;;;;28.96;75.37;102080.47;10432604;28;20033;-71
2023/08/20 14:19:50;;;;;;;1.73;0.40;;;;;;;29.50;76.54;102090.81;10435881;28;20044;-70
2023/08/20 14:24:51;;;;;;;2.17;0.60;;;;;;;30.00;73.47;102076.59;10439033;28;20033;-72
2023/08/20 14:29:51;;;;;;;1.73;0.50;;;;;;;31.18;70.64;102069.38;10437987;28;20068;-69
2023/08/20 14:34:52;;;;;;;4.18;0.98;;;;;;;30.35;75.16;102074.84;10441497;28;20048;-68
2023/08/20 14:39:52;;;;;;;4.75;1.40;;;;;;;30.34;74.39;102070.31;10440397;28;20052;-71
2023/08/20 14:44:53;;;;;;;5.25;1.98;;;;;;;29.97;73.83;102070.44;10438192;28;20045;-70
2023/08/20 14:49:54;;;;;;;2.03;0.60;;;;;;;28.81;78.74;102095.31;10437301;28;20051;-70
2023/08/20 14:54:54;;;;;;;2.35;0.50;;;;;;;27.62;80.91;102095.56;10439859;28;20251;-69
2023/08/20 14:59:55;;;;;;;2.95;0.82;;;;;;;28.02;79.62;102074.53;10437041;28;20045;-70
2023/08/20 15:04:55;;;;;;;3.55;0.68;;;;;;;27.47;80.82;102091.34;10439193;28;20033;-70
2023/08/20 15:09:56;;;;;;;5.10;0.80;;;;;;;26.75;87.93;102116.50;10440499;28;20041;-70
2023/08/20 15:14:56;;;;;;;2.88;0.63;;;;;;;27.82;83.57;102088.28;10432145;28;20080;-70
2023/08/20 15:19:56;;;;;;;4.38;1.05;;;;;;;28.53;81.17;102069.63;10436547;28;20037;-70
2023/08/20 15:24:57;;;;;;;2.47;0.80;;;;;;;27.76;80.93;102084.84;10432373;28;20052;-72
2023/08/20 15:29:57;;;;;;;3.25;1.08;;;;;;;26.90;83.33;102083.22;10440126;28;20582;-72
2023/08/20 15:34:58;;;;;;;3.38;1.20;;;;;;;26.96;84.63;102104.47;10438185;28;20084;-72
2023/08/20 15:39:58;;;;;;;5.20;1.45;;;;;;;28.46;78.86;102077.81;10434712;28;20393;-69
2023/08/20 15:44:59;;;;;;;3.17;1.05;;;;;;;28.98;77.38;102075.28;10435112;28;20381;-71
2023/08/20 15:49:59;;;;;;;2.08;0.90;;;;;;;29.27;77.55;102081.97;10414298;28;20650;-72
2023/08/20 15:55:00;;;;;;;3.28;1.10;;;;;;;29.71;77.30;102078.53;10438609;28;20033;-73
2023/08/20 16:00:00;;;;;;;3.20;0.90;;;;;;;29.72;74.76;102071.66;10429912;28;20350;-72
2023/08/20 16:05:02;;;;;;;2.63;0.80;;;;;;;30.25;73.90;102058.28;10415949;28;20449;-73
2023/08/20 16:10:04;;;;;;;3.13;0.73;;;;;;;29.93;74.50;102063.84;10421384;28;20033;-72
2023/08/20 16:15:05;;;;;;;6.88;1.23;;;;;;;29.63;76.54;102068.13;10430853;28;20046;-71
2023/08/20 16:20:07;;;;;;;6.35;1.05;;;;;;;28.96;76.25;102063.47;10420010;28;20068;-73
2023/08/20 16:25:08;;;;;;;8.35;1.33;;;;;;;29.16;77.41;102064.56;10414397;28;20041;-76
2023/08/20 16:30:09;;;;;;;1.65;0.70;;;;;;;28.24;80.18;102067.66;10426083;28;20116;-70
2023/08/20 16:35:10;;;;;;;2.42;0.50;;;;;;;27.16;83.58;102075.47;10432691;28;20037;-71
2023/08/20 16:40:20;;;;;;;7.78;0.98;;;;;;;26.04;84.11;102082.09;10417001;28;20131;-70
2023/08/20 16:45:21;;;;;;;6.85;0.73;;;;;;;25.43;87.91;102088.44;10433645;28;20064;-72
2023/08/20 16:50:22;;;;;;;3.70;1.30;;;;;;;24.96;91.73;102104.94;10412180;28;20052;-71
2023/08/20 16:55:22;;;;;;;1.70;0.50;;;;;;;24.60;92.39;102103.06;10417074;28;20494;-72
2023/08/20 17:00:23;;;;;;;3.40;0.55;;;;;;;24.40;97.44;102121.25;10426099;28;20041;-71
2023/08/20 17:05:24;;;;;;;2.28;0.90;;;;;;;24.23;100.00;102112.66;10377530;28;20096;-70
2023/08/20 17:10:25;;;;;;;4.75;1.13;;;;;;;23.93;100.00;102141.16;10430607;28;20072;-72
2023/08/20 17:15:26;;;;;;;7.63;2.00;;;;;;;23.69;100.00;102154.56;10426656;28;20519;-72
2023/08/20 17:20:27;;;;;;;9.20;2.15;;;;;;;23.42;100.00;102161.03;10424556;28;20040;-69
2023/08/20 17:25:27;;;;;;;9.40;1.42;;;;;;;23.17;100.00;102165.97;10426220;28;20048;-69
2023/08/20 17:30:28;;;;;;;7.53;1.92;;;;;;;22.94;100.00;102164.94;10434170;28;20053;-68
2023/08/20 17:35:28;;;;;;;11.20;1.65;;;;;;;22.76;100.00;102166.69;10439544;28;20053;-65
2023/08/20 17:40:29;;;;;;;9.80;2.85;;;;;;;22.56;100.00;102162.22;10433332;28;20037;-65
2023/08/20 17:45:29;;;;;;;7.68;1.52;;;;;;;22.33;100.00;102162.00;10409035;28;20071;-65
2023/08/20 17:50:36;;;;;;;11.60;2.70;;;;;;;22.12;100.00;102158.63;10407429;28;20033;-66
2023/08/20 17:55:37;;;;;;;7.65;2.05;;;;;;;21.95;100.00;102170.34;10478306;28;20041;-66
2023/08/20 18:00:39;;;;;;;9.35;2.95;;;;;;;21.72;100.00;102173.97;10474043;28;20079;-66
2023/08/20 18:05:40;;;;;;;7.70;2.42;;;;;;;21.57;100.00;102180.59;10470395;28;20052;-67
2023/08/20 18:10:40;;;;;;;10.07;2.10;;;;;;;21.41;100.00;102179.91;10471298;28;20037;-66
2023/08/20 18:15:41;;;;;;;12.75;2.58;;;;;;;21.27;100.00;102198.53;10473747;28;20036;-66
2023/08/20 18:20:41;;;;;;;7.20;2.17;;;;;;;21.15;100.00;102201.75;10469530;28;20090;-66
2023/08/20 18:25:43;;;;;;;14.32;2.95;;;;;;;20.99;100.00;102200.19;10475840;28;20036;-66
2023/08/20 18:30:52;;;;;;;17.30;3.53;;;;;;;20.80;100.00;102202.88;10486192;28;20176;-66
2023/08/20 18:35:59;;;;;;;9.35;2.35;;;;;;;20.73;100.00;102206.84;10468868;28;20041;-67
2023/08/20 18:41:03;;;;;;;7.25;2.30;;;;;;;20.58;100.00;102220.91;10441567;28;20361;-67
2023/08/20 18:46:04;;;;;;;15.30;2.65;;;;;;;20.44;100.00;102225.44;10478657;28;20493;-66
2023/08/20 18:51:05;;;;;;;10.48;2.63;;;;;;;20.25;100.00;102217.72;10463874;28;20044;-66
2023/08/20 18:56:06;;;;;;;13.43;3.17;;;;;;;20.08;100.00;102234.00;10453257;28;20480;-66
2023/08/20 19:01:07;;;;;;;12.90;2.72;;;;;;;19.91;100.00;102234.38;10479346;28;20040;-67
2023/08/20 19:06:07;;;;;;;9.27;2.53;;;;;;;19.80;100.00;102239.13;10480723;28;20063;-66
2023/08/20 19:11:08;;;;;;;14.77;3.60;;;;;;;19.59;100.00;102220.72;10481397;28;20040;-67
2023/08/20 19:16:08;;;;;;;10.27;2.75;;;;;;;19.46;100.00;102239.72;10481222;28;20033;-67
2023/08/20 19:21:09;;;;;;;14.30;2.70;;;;;;;19.28;100.00;102245.88;10478059;28;20100;-67
2023/08/20 19:26:10;;;;;;;15.52;4.65;;;;;;;19.12;100.00;102245.91;10478187;28;20501;-66
2023/08/20 19:31:12;;;;;;;10.48;2.95;;;;;;;19.00;100.00;102248.13;10463859;28;20107;-65
2023/08/20 19:36:12;;;;;;;14.38;3.55;;;;;;;18.87;100.00;102254.25;10463647;28;20467;-64
2023/08/20 19:41:13;;;;;;;14.80;4.25;;;;;;;18.72;100.00;102241.91;10475947;28;20103;-66
2023/08/20 19:46:13;;;;;;;14.65;3.70;;;;;;;18.62;100.00;102233.50;10478817;28;20032;-67
2023/08/20 19:51:14;;;;;;;13.38;3.45;;;;;;;18.46;100.00;102231.81;10479383;28;20036;-66
2023/08/20 19:56:14;;;;;;;13.48;3.33;;;;;;;18.38;100.00;102240.72;10483074;28;20033;-66
2023/08/20 20:01:15;;;;;;;14.90;2.88;;;;;;;18.28;100.00;102235.94;10476317;28;20496;-66
2023/08/20 20:06:15;;;;;;;6.82;2.33;;;;;;;18.19;100.00;102243.16;10476009;28;20442;-67
2023/08/20 20:11:16;;;;;;;12.75;3.13;;;;;;;18.07;100.00;102246.19;10484579;28;20554;-66
2023/08/20 20:16:17;;;;;;;13.27;3.58;;;;;;;18.01;100.00;102247.28;10476783;28;20498;-66
2023/08/20 20:21:18;;;;;;;9.70;3.28;;;;;;;17.89;100.00;102262.25;10479658;28;20044;-66
2023/08/20 20:26:19;;;;;;;10.25;3.67;;;;;;;17.84;100.00;102267.78;10476615;28;20098;-66
2023/08/20 20:31:19;;;;;;;9.23;3.10;;;;;;;17.74;100.00;102257.38;10476759;28;20091;-68
2023/08/20 20:36:20;;;;;;;13.45;3.05;;;;;;;17.75;100.00;102272.16;10463330;28;20091;-67
2023/08/20 20:41:20;;;;;;;10.23;2.83;;;;;;;17.67;100.00;102275.44;10473505;28;20037;-68
2023/08/20 20:46:22;;;;;;;11.70;3.60;;;;;;;17.51;100.00;102271.72;10456721;28;20063;-68
2023/08/20 20:51:23;;;;;;;14.32;4.07;;;;;;;17.48;100.00;102266.69;10477341;28;20488;-68
2023/08/20 20:56:23;;;;;;;14.43;4.70;;;;;;;17.33;100.00;102261.84;10475251;28;20037;-68
2023/08/20 21:01:24;;;;;;;14.85;4.30;;;;;;;17.30;100.00;102279.06;10472723;28;20544;-68
2023/08/20 21:06:24;;;;;;;19.40;4.05;;;;;;;17.22;100.00;102273.97;10470758;28;20036;-68
2023/08/20 21:11:25;;;;;;;15.75;5.07;;;;;;;17.17;100.00;102273.94;10475828;28;20033;-68
2023/08/20 21:16:25;;;;;;;14.95;5.50;;;;;;;17.17;100.00;102271.16;10477883;28;20033;-68
2023/08/20 21:21:26;;;;;;;21.92;6.97;;;;;;;17.11;100.00;102273.03;10455727;28;20048;-67
2023/08/20 21:26:26;;;;;;;18.90;6.47;;;;;;;17.04;100.00;102267.72;10477114;28;20052;-67
2023/08/20 21:31:27;;;;;;;17.05;5.57;;;;;;;16.94;100.00;102262.88;10473510;28;20047;-68
2023/08/20 21:36:28;;;;;;;11.88;5.10;;;;;;;16.84;100.00;102267.50;10475465;28;20048;-67
2023/08/20 21:41:28;;;;;;;10.60;5.07;;;;;;;16.74;100.00;102263.50;10474434;28;20608;-66
2023/08/20 21:46:29;;;;;;;13.10;4.82;;;;;;;16.63;100.00;102272.81;10492039;28;20158;-67
2023/08/20 21:51:30;;;;;;;9.30;4.30;;;;;;;16.59;100.00;102271.66;10474416;28;20037;-66
2023/08/20 21:56:30;;;;;;;15.23;4.50;;;;;;;16.57;100.00;102275.81;10478545;28;20044;-67
2023/08/20 22:01:31;;;;;;;13.27;5.25;;;;;;;16.52;100.00;102271.03;10475765;28;20056;-68
2023/08/20 22:06:31;;;;;;;15.95;4.32;;;;;;;16.43;100.00;102267.84;10454832;28;20072;-67
2023/08/20 22:11:32;;;;;;;15.13;4.60;;;;;;;16.39;100.00;102257.53;10467926;28;20049;-65
2023/08/20 22:16:32;;;;;;;19.95;5.55;;;;;;;16.39;100.00;102255.59;10476235;28;20063;-67
2023/08/20 22:21:33;;;;;;;15.25;4.82;;;;;;;16.28;100.00;102253.78;10477224;28;20044;-67
2023/08/20 22:26:33;;;;;;;15.30;4.65;;;;;;;16.20;100.00;102262.56;10468660;28;20037;-67
2023/08/20 22:31:34;;;;;;;11.93;4.68;;;;;;;16.14;100.00;102258.88;10470986;28;20054;-66
2023/08/20 22:36:34;;;;;;;15.43;4.57;;;;;;;16.05;100.00;102254.88;10453417;28;20036;-67
2023/08/20 22:41:35;;;;;;;7.88;4.63;;;;;;;15.99;100.00;102255.91;10458364;28;20112;-67